TRA14R EHAM-LPMA
Flight info
| Callsign | TRA14R |
|---|---|
| Flight time | 4h 1m |
| Altitude | 34000 |
| Route | VALKO3S/24 IDRID L980 LOGAN DCT SAM M195 LORKU DCT EBOMO DCT COQUE DCT KORUL DCT DEMOS DCT ASMAR DCT LIDRO |
| Aircraft | B738/M-SDE2E3FGHIRWXY/LB1 |
Departure
| Time | 2026-05-04 12:41 |
|---|---|
| Airport | Amsterdam Airport Schiphol (EHAM) |
Arrival
| Time | 2026-05-04 16:43 |
|---|---|
| Airport | Cristiano Ronaldo International Airport (LPMA) |
| Time | Latitude | Longitude | Altitude | Speed | Heading |
|---|---|---|---|---|---|
| 2026-05-04 12:36 | 52.30845 | 4.77162 | -2 ft | 0 kts | 95° |
| 2026-05-04 12:37 | 52.30845 | 4.77167 | -2 ft | 2 kts | 95° |
| 2026-05-04 12:37 | 52.30843 | 4.77217 | -2 ft | 7 kts | 93° |
| 2026-05-04 12:37 | 52.30839 | 4.77318 | -2 ft | 9 kts | 93° |
| 2026-05-04 12:38 | 52.30836 | 4.77422 | -2 ft | 9 kts | 96° |
| 2026-05-04 12:38 | 52.30785 | 4.77465 | -2 ft | 10 kts | 180° |
| 2026-05-04 12:38 | 52.30710 | 4.77456 | -2 ft | 11 kts | 184° |
| 2026-05-04 12:38 | 52.30660 | 4.77468 | -2 ft | 11 kts | 156° |
| 2026-05-04 12:39 | 52.30591 | 4.77524 | -2 ft | 11 kts | 153° |
| 2026-05-04 12:39 | 52.30525 | 4.77579 | -2 ft | 11 kts | 152° |
| 2026-05-04 12:39 | 52.30441 | 4.77651 | -2 ft | 10 kts | 152° |
| 2026-05-04 12:39 | 52.30428 | 4.77656 | -2 ft | 2 kts | 179° |
| 2026-05-04 12:40 | 52.30415 | 4.77645 | -2 ft | 4 kts | 222° |
| 2026-05-04 12:40 | 52.30377 | 4.77550 | -3 ft | 28 kts | 237° |
| 2026-05-04 12:40 | 52.30146 | 4.76943 | -4 ft | 96 kts | 238° |
| 2026-05-04 12:40 | 52.29685 | 4.75735 | -3 ft | 153 kts | 238° |
| 2026-05-04 12:41 | 52.29059 | 4.74100 | 209 ft | 182 kts | 239° |
| 2026-05-04 12:41 | 52.28398 | 4.72428 | 1137 ft | 174 kts | 239° |
| 2026-05-04 12:41 | 52.27724 | 4.70750 | 1940 ft | 179 kts | 237° |
| 2026-05-04 12:41 | 52.26968 | 4.69012 | 2551 ft | 199 kts | 227° |
| 2026-05-04 12:42 | 52.25899 | 4.67413 | 2931 ft | 216 kts | 222° |
| 2026-05-04 12:42 | 52.24744 | 4.65710 | 3278 ft | 232 kts | 226° |
| 2026-05-04 12:42 | 52.23829 | 4.63454 | 3525 ft | 253 kts | 250° |
| 2026-05-04 12:42 | 52.23309 | 4.60677 | 4191 ft | 257 kts | 254° |
| 2026-05-04 12:43 | 52.22793 | 4.57865 | 4983 ft | 261 kts | 252° |
| 2026-05-04 12:43 | 52.22236 | 4.54994 | 5894 ft | 262 kts | 252° |
| 2026-05-04 12:43 | 52.21669 | 4.52181 | 6691 ft | 267 kts | 251° |
| 2026-05-04 12:43 | 52.21062 | 4.49257 | 7469 ft | 270 kts | 251° |
| 2026-05-04 12:44 | 52.20461 | 4.46388 | 8240 ft | 272 kts | 251° |
| 2026-05-04 12:44 | 52.19843 | 4.43451 | 8948 ft | 275 kts | 251° |
| 2026-05-04 12:44 | 52.19218 | 4.40489 | 9665 ft | 278 kts | 250° |
| 2026-05-04 12:44 | 52.18584 | 4.37484 | 10249 ft | 284 kts | 250° |
| 2026-05-04 12:45 | 52.17916 | 4.34327 | 10423 ft | 306 kts | 250° |
| 2026-05-04 12:45 | 52.17198 | 4.30942 | 10595 ft | 326 kts | 250° |
| 2026-05-04 12:45 | 52.16436 | 4.27350 | 10749 ft | 345 kts | 250° |
| 2026-05-04 12:45 | 52.15639 | 4.23601 | 11170 ft | 354 kts | 250° |
| 2026-05-04 12:46 | 52.14828 | 4.19790 | 11758 ft | 357 kts | 250° |
| 2026-05-04 12:46 | 52.14008 | 4.15944 | 12401 ft | 360 kts | 250° |
| 2026-05-04 12:46 | 52.13182 | 4.12080 | 13049 ft | 363 kts | 250° |
| 2026-05-04 12:46 | 52.12349 | 4.08189 | 13688 ft | 365 kts | 250° |
| 2026-05-04 12:47 | 52.11509 | 4.04273 | 14260 ft | 368 kts | 250° |
| 2026-05-04 12:47 | 52.10662 | 4.00330 | 14823 ft | 370 kts | 250° |
| 2026-05-04 12:47 | 52.09807 | 3.96358 | 15388 ft | 373 kts | 250° |
| 2026-05-04 12:47 | 52.08947 | 3.92365 | 15963 ft | 375 kts | 250° |
| 2026-05-04 12:48 | 52.08077 | 3.88341 | 16510 ft | 378 kts | 250° |
| 2026-05-04 12:48 | 52.07209 | 3.84340 | 17031 ft | 381 kts | 250° |
| 2026-05-04 12:48 | 52.06324 | 3.80265 | 17566 ft | 384 kts | 250° |
| 2026-05-04 12:48 | 52.05429 | 3.76163 | 18101 ft | 386 kts | 250° |
| 2026-05-04 12:49 | 52.04527 | 3.72035 | 18585 ft | 389 kts | 250° |
| 2026-05-04 12:49 | 52.03619 | 3.67887 | 19074 ft | 390 kts | 250° |
| 2026-05-04 12:49 | 52.02708 | 3.63727 | 19575 ft | 391 kts | 250° |
| 2026-05-04 12:49 | 52.01794 | 3.59559 | 20060 ft | 393 kts | 250° |
| 2026-05-04 12:50 | 52.00873 | 3.55376 | 20534 ft | 394 kts | 250° |
| 2026-05-04 12:50 | 51.99945 | 3.51179 | 21000 ft | 396 kts | 249° |
| 2026-05-04 12:50 | 51.98675 | 3.47215 | 21369 ft | 399 kts | 234° |
| 2026-05-04 12:50 | 51.96981 | 3.43609 | 21715 ft | 404 kts | 233° |
| 2026-05-04 12:51 | 51.95280 | 3.39971 | 22151 ft | 406 kts | 234° |
| 2026-05-04 12:51 | 51.93593 | 3.36308 | 22625 ft | 406 kts | 234° |
| 2026-05-04 12:51 | 51.91911 | 3.32617 | 23066 ft | 408 kts | 234° |
| 2026-05-04 12:51 | 51.90228 | 3.28908 | 23469 ft | 410 kts | 234° |
| 2026-05-04 12:52 | 51.88532 | 3.25174 | 23813 ft | 411 kts | 234° |
| 2026-05-04 12:52 | 51.86874 | 3.21393 | 24143 ft | 413 kts | 239° |
| 2026-05-04 12:52 | 51.85602 | 3.17240 | 24482 ft | 414 kts | 248° |
| 2026-05-04 12:52 | 51.84706 | 3.12810 | 24825 ft | 415 kts | 255° |
| 2026-05-04 12:53 | 51.84230 | 3.08255 | 25115 ft | 418 kts | 262° |
| 2026-05-04 12:53 | 51.83941 | 3.03503 | 25415 ft | 420 kts | 263° |
| 2026-05-04 12:53 | 51.83672 | 2.98849 | 25695 ft | 423 kts | 263° |
| 2026-05-04 12:53 | 51.83391 | 2.94105 | 25981 ft | 424 kts | 262° |
| 2026-05-04 12:54 | 51.83096 | 2.89349 | 26273 ft | 426 kts | 262° |
| 2026-05-04 12:54 | 51.82789 | 2.84572 | 26516 ft | 429 kts | 262° |
| 2026-05-04 12:54 | 51.82473 | 2.79774 | 26779 ft | 431 kts | 261° |
| 2026-05-04 12:54 | 51.82153 | 2.74949 | 27059 ft | 432 kts | 261° |
| 2026-05-04 12:55 | 51.81829 | 2.70108 | 27332 ft | 434 kts | 261° |
| 2026-05-04 12:55 | 51.81502 | 2.65259 | 27574 ft | 436 kts | 261° |
| 2026-05-04 12:55 | 51.81169 | 2.60384 | 27826 ft | 437 kts | 261° |
| 2026-05-04 12:55 | 51.80831 | 2.55492 | 28178 ft | 436 kts | 261° |
| 2026-05-04 12:56 | 51.80494 | 2.50636 | 28583 ft | 434 kts | 260° |
| 2026-05-04 12:56 | 51.80157 | 2.45795 | 28970 ft | 433 kts | 260° |
| 2026-05-04 12:56 | 51.79818 | 2.40962 | 29307 ft | 433 kts | 260° |
| 2026-05-04 12:56 | 51.79476 | 2.36115 | 29539 ft | 435 kts | 260° |
| 2026-05-04 12:57 | 51.79133 | 2.31261 | 29828 ft | 435 kts | 260° |
| 2026-05-04 12:57 | 51.78788 | 2.26416 | 30199 ft | 433 kts | 260° |
| 2026-05-04 12:57 | 51.78444 | 2.21588 | 30463 ft | 433 kts | 260° |
| 2026-05-04 12:57 | 51.78134 | 2.16737 | 30648 ft | 435 kts | 261° |
| 2026-05-04 12:58 | 51.77852 | 2.11874 | 30913 ft | 435 kts | 261° |
| 2026-05-04 12:58 | 51.77578 | 2.07020 | 31241 ft | 432 kts | 261° |
| 2026-05-04 12:58 | 51.77303 | 2.02195 | 31570 ft | 430 kts | 261° |
| 2026-05-04 12:58 | 51.77023 | 1.97387 | 31843 ft | 429 kts | 261° |
| 2026-05-04 12:59 | 51.76737 | 1.92586 | 32123 ft | 429 kts | 261° |
| 2026-05-04 12:59 | 51.76450 | 1.87851 | 32309 ft | 430 kts | 261° |
| 2026-05-04 12:59 | 51.76156 | 1.83045 | 32528 ft | 430 kts | 261° |
| 2026-05-04 12:59 | 51.75862 | 1.78254 | 32826 ft | 428 kts | 261° |
| 2026-05-04 13:00 | 51.75569 | 1.73485 | 33121 ft | 426 kts | 261° |
| 2026-05-04 13:00 | 51.75274 | 1.68735 | 33373 ft | 425 kts | 260° |
| 2026-05-04 13:00 | 51.74963 | 1.63991 | 33593 ft | 424 kts | 258° |
| 2026-05-04 13:00 | 51.74355 | 1.59355 | 33807 ft | 420 kts | 249° |
| 2026-05-04 13:01 | 51.73329 | 1.54975 | 34035 ft | 416 kts | 244° |
| 2026-05-04 13:01 | 51.71088 | 1.46300 | 34020 ft | 419 kts | 244° |
| 2026-05-04 13:02 | 51.68856 | 1.37638 | 34023 ft | 418 kts | 244° |
| 2026-05-04 13:02 | 51.66650 | 1.29015 | 34025 ft | 419 kts | 245° |
| 2026-05-04 13:03 | 51.64432 | 1.20334 | 34023 ft | 419 kts | 245° |
| 2026-05-04 13:03 | 51.62209 | 1.11658 | 34024 ft | 419 kts | 245° |
| 2026-05-04 13:04 | 51.59977 | 1.02979 | 34023 ft | 420 kts | 244° |
| 2026-05-04 13:04 | 51.57739 | 0.94312 | 34028 ft | 420 kts | 245° |
| 2026-05-04 13:05 | 51.55486 | 0.85619 | 34036 ft | 421 kts | 244° |
| 2026-05-04 13:05 | 51.53224 | 0.76928 | 34028 ft | 422 kts | 244° |
| 2026-05-04 13:06 | 51.50948 | 0.68214 | 34023 ft | 423 kts | 244° |
| 2026-05-04 13:06 | 51.48661 | 0.59493 | 34028 ft | 424 kts | 244° |
| 2026-05-04 13:07 | 51.46366 | 0.50774 | 34019 ft | 425 kts | 244° |
| 2026-05-04 13:07 | 51.44073 | 0.42097 | 34007 ft | 426 kts | 244° |
| 2026-05-04 13:08 | 51.41756 | 0.33360 | 34021 ft | 426 kts | 244° |
| 2026-05-04 13:08 | 51.39426 | 0.24611 | 34031 ft | 427 kts | 244° |
| 2026-05-04 13:09 | 51.37087 | 0.15857 | 34032 ft | 428 kts | 244° |
| 2026-05-04 13:09 | 51.34738 | 0.07101 | 34035 ft | 428 kts | 244° |
| 2026-05-04 13:10 | 51.32380 | -0.01654 | 34030 ft | 429 kts | 244° |
| 2026-05-04 13:10 | 51.30011 | -0.10416 | 34019 ft | 429 kts | 244° |
| 2026-05-04 13:11 | 51.27635 | -0.19173 | 34026 ft | 430 kts | 244° |
| 2026-05-04 13:11 | 51.25247 | -0.27942 | 34024 ft | 431 kts | 243° |
| 2026-05-04 13:12 | 51.22846 | -0.36723 | 34021 ft | 431 kts | 243° |
| 2026-05-04 13:12 | 51.20457 | -0.45428 | 34020 ft | 431 kts | 243° |
| 2026-05-04 13:13 | 51.18043 | -0.54192 | 34022 ft | 432 kts | 243° |
| 2026-05-04 13:13 | 51.15621 | -0.62949 | 34013 ft | 432 kts | 243° |
| 2026-05-04 13:14 | 51.13195 | -0.71691 | 34021 ft | 431 kts | 243° |
| 2026-05-04 13:14 | 51.10898 | -0.79941 | 34019 ft | 431 kts | 243° |
| 2026-05-04 13:15 | 51.08466 | -0.88641 | 34013 ft | 430 kts | 243° |
| 2026-05-04 13:15 | 51.06028 | -0.97328 | 34023 ft | 430 kts | 243° |
| 2026-05-04 13:16 | 51.03583 | -1.06011 | 34004 ft | 430 kts | 243° |
| 2026-05-04 13:16 | 51.01130 | -1.14691 | 34000 ft | 431 kts | 243° |
| 2026-05-04 13:17 | 50.98666 | -1.23386 | 33999 ft | 432 kts | 243° |
| 2026-05-04 13:17 | 50.95959 | -1.31814 | 33985 ft | 430 kts | 231° |
| 2026-05-04 13:18 | 50.91804 | -1.38518 | 33986 ft | 426 kts | 213° |
| 2026-05-04 13:18 | 50.86844 | -1.43655 | 33994 ft | 427 kts | 211° |
| 2026-05-04 13:19 | 50.81840 | -1.48758 | 34006 ft | 429 kts | 212° |
| 2026-05-04 13:19 | 50.76826 | -1.53930 | 34000 ft | 430 kts | 212° |
| 2026-05-04 13:20 | 50.71807 | -1.59126 | 33999 ft | 431 kts | 212° |
| 2026-05-04 13:20 | 50.66783 | -1.64321 | 34010 ft | 432 kts | 212° |
| 2026-05-04 13:21 | 50.61747 | -1.69512 | 34020 ft | 432 kts | 211° |
| 2026-05-04 13:21 | 50.56747 | -1.74653 | 34014 ft | 431 kts | 211° |
| 2026-05-04 13:22 | 50.51733 | -1.79790 | 34014 ft | 429 kts | 211° |
| 2026-05-04 13:22 | 50.46731 | -1.84870 | 34014 ft | 427 kts | 211° |
| 2026-05-04 13:23 | 50.41739 | -1.89922 | 34017 ft | 426 kts | 211° |
| 2026-05-04 13:23 | 50.36763 | -1.94952 | 34025 ft | 425 kts | 211° |
| 2026-05-04 13:24 | 50.31789 | -1.99969 | 34020 ft | 425 kts | 211° |
| 2026-05-04 13:24 | 50.26809 | -2.04980 | 34017 ft | 425 kts | 211° |
| 2026-05-04 13:25 | 50.19302 | -2.12401 | 34018 ft | 426 kts | 210° |
| 2026-05-04 13:25 | 50.15112 | -2.16465 | 34024 ft | 427 kts | 210° |
| 2026-05-04 13:26 | 50.09237 | -2.22163 | 34017 ft | 428 kts | 210° |
| 2026-05-04 13:26 | 50.04177 | -2.27070 | 34013 ft | 429 kts | 210° |
| 2026-05-04 13:27 | 49.99957 | -2.31155 | 34016 ft | 430 kts | 210° |
| 2026-05-04 13:27 | 49.94878 | -2.36059 | 34015 ft | 430 kts | 210° |
| 2026-05-04 13:28 | 49.89786 | -2.40961 | 34021 ft | 430 kts | 210° |
| 2026-05-04 13:28 | 49.84695 | -2.45853 | 34018 ft | 430 kts | 210° |
| 2026-05-04 13:29 | 49.79599 | -2.50740 | 34019 ft | 430 kts | 210° |
| 2026-05-04 13:29 | 49.74509 | -2.55610 | 34019 ft | 430 kts | 210° |
| 2026-05-04 13:30 | 49.69420 | -2.60468 | 34023 ft | 430 kts | 210° |
| 2026-05-04 13:30 | 49.64330 | -2.65314 | 34015 ft | 429 kts | 210° |
| 2026-05-04 13:31 | 49.59253 | -2.70136 | 34034 ft | 428 kts | 210° |
| 2026-05-04 13:31 | 49.54174 | -2.74947 | 34020 ft | 428 kts | 210° |
| 2026-05-04 13:32 | 49.49129 | -2.79715 | 34021 ft | 428 kts | 210° |
| 2026-05-04 13:32 | 49.44049 | -2.84504 | 34016 ft | 428 kts | 210° |
| 2026-05-04 13:33 | 49.38967 | -2.89282 | 34012 ft | 428 kts | 210° |
| 2026-05-04 13:33 | 49.33878 | -2.94057 | 34009 ft | 429 kts | 210° |
| 2026-05-04 13:34 | 49.28783 | -2.98824 | 34004 ft | 429 kts | 210° |
| 2026-05-04 13:34 | 49.23689 | -3.03580 | 34010 ft | 429 kts | 210° |
| 2026-05-04 13:35 | 49.16043 | -3.10695 | 34022 ft | 429 kts | 210° |
| 2026-05-04 13:36 | 49.10931 | -3.15438 | 34010 ft | 430 kts | 210° |
| 2026-05-04 13:36 | 49.05843 | -3.20147 | 34005 ft | 430 kts | 210° |
| 2026-05-04 13:37 | 49.00717 | -3.24880 | 33998 ft | 431 kts | 210° |
| 2026-05-04 13:37 | 48.95579 | -3.29612 | 34001 ft | 431 kts | 210° |
| 2026-05-04 13:38 | 48.90441 | -3.34333 | 33993 ft | 431 kts | 210° |
| 2026-05-04 13:38 | 48.85300 | -3.39046 | 33997 ft | 431 kts | 210° |
| 2026-05-04 13:39 | 48.80150 | -3.43754 | 33995 ft | 432 kts | 210° |
| 2026-05-04 13:39 | 48.75000 | -3.48452 | 33996 ft | 432 kts | 210° |
| 2026-05-04 13:40 | 48.69869 | -3.53121 | 34003 ft | 433 kts | 210° |
| 2026-05-04 13:40 | 48.64705 | -3.57809 | 33995 ft | 433 kts | 210° |
| 2026-05-04 13:41 | 48.59531 | -3.62494 | 33987 ft | 433 kts | 210° |
| 2026-05-04 13:41 | 48.54360 | -3.67165 | 33989 ft | 433 kts | 210° |
| 2026-05-04 13:42 | 48.46611 | -3.74145 | 33976 ft | 432 kts | 209° |
| 2026-05-04 13:42 | 48.41448 | -3.78781 | 33975 ft | 431 kts | 209° |
| 2026-05-04 13:43 | 48.36296 | -3.83397 | 33976 ft | 431 kts | 209° |
| 2026-05-04 13:43 | 48.31144 | -3.88001 | 33984 ft | 431 kts | 209° |
| 2026-05-04 13:44 | 48.26019 | -3.92570 | 33975 ft | 432 kts | 209° |
| 2026-05-04 13:44 | 48.20839 | -3.97177 | 33978 ft | 433 kts | 209° |
| 2026-05-04 13:45 | 48.15637 | -4.01793 | 33983 ft | 435 kts | 209° |
| 2026-05-04 13:45 | 48.10418 | -4.06414 | 34006 ft | 436 kts | 209° |
| 2026-05-04 13:46 | 48.05174 | -4.11046 | 33987 ft | 438 kts | 209° |
| 2026-05-04 13:46 | 47.99948 | -4.15650 | 33990 ft | 440 kts | 209° |
| 2026-05-04 13:47 | 47.94672 | -4.20288 | 33993 ft | 440 kts | 209° |
| 2026-05-04 13:47 | 47.89401 | -4.24912 | 34002 ft | 439 kts | 209° |
| 2026-05-04 13:48 | 47.84132 | -4.29523 | 33991 ft | 439 kts | 209° |
| 2026-05-04 13:48 | 47.78881 | -4.34198 | 33994 ft | 439 kts | 210° |
| 2026-05-04 13:49 | 47.73708 | -4.39016 | 33983 ft | 439 kts | 211° |
| 2026-05-04 13:49 | 47.68548 | -4.43828 | 33986 ft | 438 kts | 211° |
| 2026-05-04 13:50 | 47.63376 | -4.48616 | 33991 ft | 437 kts | 210° |
| 2026-05-04 13:50 | 47.58213 | -4.53369 | 33999 ft | 437 kts | 210° |
| 2026-05-04 13:51 | 47.53080 | -4.58081 | 33997 ft | 436 kts | 210° |
| 2026-05-04 13:51 | 47.47917 | -4.62809 | 33992 ft | 436 kts | 210° |
| 2026-05-04 13:52 | 47.40172 | -4.69882 | 33991 ft | 436 kts | 210° |
| 2026-05-04 13:53 | 47.35008 | -4.74585 | 33998 ft | 436 kts | 210° |
| 2026-05-04 13:53 | 47.29846 | -4.79276 | 33994 ft | 436 kts | 210° |
| 2026-05-04 13:54 | 47.22083 | -4.86309 | 33999 ft | 436 kts | 210° |
| 2026-05-04 13:55 | 47.14360 | -4.93283 | 33992 ft | 437 kts | 210° |
| 2026-05-04 13:55 | 47.06584 | -5.00281 | 33998 ft | 437 kts | 210° |
| 2026-05-04 13:56 | 47.01398 | -5.04944 | 33996 ft | 437 kts | 210° |
| 2026-05-04 13:57 | 46.93627 | -5.11922 | 33995 ft | 436 kts | 210° |
| 2026-05-04 13:58 | 46.83292 | -5.21164 | 33995 ft | 435 kts | 210° |
| 2026-05-04 13:58 | 46.75562 | -5.28050 | 33994 ft | 434 kts | 210° |
| 2026-05-04 13:59 | 46.70406 | -5.32629 | 34001 ft | 434 kts | 210° |
| 2026-05-04 14:00 | 46.62702 | -5.39452 | 33995 ft | 434 kts | 210° |
| 2026-05-04 14:00 | 46.54962 | -5.46284 | 33996 ft | 434 kts | 210° |
| 2026-05-04 14:01 | 46.49799 | -5.50829 | 33992 ft | 434 kts | 210° |
| 2026-05-04 14:02 | 46.42039 | -5.57639 | 33995 ft | 435 kts | 210° |
| 2026-05-04 14:02 | 46.36863 | -5.62170 | 34010 ft | 435 kts | 210° |
| 2026-05-04 14:03 | 46.31675 | -5.66701 | 33995 ft | 436 kts | 210° |
| 2026-05-04 14:03 | 46.26479 | -5.71228 | 33995 ft | 436 kts | 210° |
| 2026-05-04 14:04 | 46.18692 | -5.77995 | 33993 ft | 437 kts | 210° |
| 2026-05-04 14:04 | 46.13483 | -5.82509 | 33996 ft | 437 kts | 210° |
| 2026-05-04 14:05 | 46.05656 | -5.89272 | 33993 ft | 437 kts | 210° |
| 2026-05-04 14:06 | 46.00434 | -5.93772 | 33988 ft | 437 kts | 210° |
| 2026-05-04 14:06 | 45.95220 | -5.98254 | 33990 ft | 438 kts | 210° |
| 2026-05-04 14:07 | 45.89985 | -6.02745 | 33998 ft | 438 kts | 210° |
| 2026-05-04 14:07 | 45.84749 | -6.07227 | 33996 ft | 438 kts | 210° |
| 2026-05-04 14:08 | 45.79510 | -6.11701 | 33993 ft | 438 kts | 210° |
| 2026-05-04 14:08 | 45.74303 | -6.16138 | 33991 ft | 438 kts | 210° |
| 2026-05-04 14:09 | 45.66453 | -6.22810 | 33994 ft | 437 kts | 210° |
| 2026-05-04 14:10 | 45.58611 | -6.29452 | 34002 ft | 437 kts | 211° |
| 2026-05-04 14:10 | 45.53387 | -6.33865 | 33995 ft | 436 kts | 210° |
| 2026-05-04 14:11 | 45.48159 | -6.38271 | 33989 ft | 436 kts | 210° |
| 2026-05-04 14:11 | 45.40323 | -6.44859 | 33991 ft | 436 kts | 210° |
| 2026-05-04 14:12 | 45.35104 | -6.49234 | 33991 ft | 435 kts | 210° |
| 2026-05-04 14:13 | 45.28151 | -6.55048 | 34000 ft | 435 kts | 210° |
| 2026-05-04 14:13 | 45.22930 | -6.59403 | 33982 ft | 435 kts | 211° |
| 2026-05-04 14:14 | 45.17705 | -6.63752 | 33997 ft | 435 kts | 211° |
| 2026-05-04 14:14 | 45.09859 | -6.70265 | 34002 ft | 436 kts | 211° |
| 2026-05-04 14:15 | 44.99354 | -6.78954 | 33995 ft | 438 kts | 211° |
| 2026-05-04 14:16 | 44.91500 | -6.85426 | 33999 ft | 438 kts | 211° |
| 2026-05-04 14:17 | 44.83597 | -6.91918 | 33996 ft | 438 kts | 211° |
| 2026-05-04 14:18 | 44.75821 | -6.98714 | 34000 ft | 438 kts | 213° |
| 2026-05-04 14:19 | 44.65522 | -7.07910 | 34002 ft | 438 kts | 213° |
| 2026-05-04 14:19 | 44.60366 | -7.12464 | 34002 ft | 438 kts | 213° |
| 2026-05-04 14:20 | 44.55197 | -7.17011 | 33997 ft | 438 kts | 213° |
| 2026-05-04 14:20 | 44.50045 | -7.21533 | 34004 ft | 437 kts | 213° |
| 2026-05-04 14:21 | 44.42299 | -7.28315 | 34002 ft | 438 kts | 213° |
| 2026-05-04 14:21 | 44.37166 | -7.32797 | 33995 ft | 438 kts | 213° |
| 2026-05-04 14:22 | 44.31962 | -7.37333 | 34004 ft | 438 kts | 213° |
| 2026-05-04 14:22 | 44.26792 | -7.41829 | 34002 ft | 438 kts | 213° |
| 2026-05-04 14:23 | 44.19043 | -7.48550 | 34014 ft | 439 kts | 213° |
| 2026-05-04 14:24 | 44.13863 | -7.53031 | 34014 ft | 438 kts | 213° |
| 2026-05-04 14:24 | 44.08687 | -7.57499 | 34008 ft | 438 kts | 213° |
| 2026-05-04 14:25 | 44.03507 | -7.61961 | 34002 ft | 437 kts | 213° |
| 2026-05-04 14:25 | 43.95754 | -7.68623 | 34016 ft | 437 kts | 213° |
| 2026-05-04 14:26 | 43.90587 | -7.73052 | 34016 ft | 436 kts | 213° |
| 2026-05-04 14:26 | 43.85428 | -7.77463 | 34016 ft | 436 kts | 213° |
| 2026-05-04 14:27 | 43.80261 | -7.81873 | 34016 ft | 436 kts | 213° |
| 2026-05-04 14:27 | 43.75105 | -7.86265 | 34002 ft | 435 kts | 214° |
| 2026-05-04 14:28 | 43.69942 | -7.90654 | 34022 ft | 435 kts | 214° |
| 2026-05-04 14:28 | 43.64794 | -7.95021 | 34025 ft | 434 kts | 214° |
| 2026-05-04 14:29 | 43.54523 | -8.03707 | 34023 ft | 434 kts | 214° |
| 2026-05-04 14:30 | 43.49376 | -8.08046 | 34045 ft | 433 kts | 214° |
| 2026-05-04 14:31 | 43.41655 | -8.14539 | 34060 ft | 432 kts | 214° |
| 2026-05-04 14:32 | 43.31390 | -8.23142 | 34065 ft | 432 kts | 214° |
| 2026-05-04 14:32 | 43.26263 | -8.27425 | 34079 ft | 431 kts | 214° |
| 2026-05-04 14:33 | 43.21135 | -8.31702 | 34078 ft | 431 kts | 214° |
| 2026-05-04 14:33 | 43.16034 | -8.35947 | 34061 ft | 432 kts | 214° |
| 2026-05-04 14:34 | 43.10867 | -8.40238 | 34050 ft | 431 kts | 214° |
| 2026-05-04 14:34 | 43.05734 | -8.44492 | 34042 ft | 431 kts | 214° |
| 2026-05-04 14:35 | 43.00598 | -8.48742 | 34052 ft | 432 kts | 214° |
| 2026-05-04 14:35 | 42.95486 | -8.52963 | 34046 ft | 432 kts | 214° |
| 2026-05-04 14:36 | 42.90335 | -8.57207 | 34030 ft | 432 kts | 214° |
| 2026-05-04 14:36 | 42.85186 | -8.61441 | 34062 ft | 433 kts | 214° |
| 2026-05-04 14:37 | 42.80018 | -8.65684 | 34055 ft | 434 kts | 214° |
| 2026-05-04 14:37 | 42.74845 | -8.69921 | 34062 ft | 434 kts | 214° |
| 2026-05-04 14:38 | 42.69662 | -8.74158 | 34050 ft | 435 kts | 215° |
| 2026-05-04 14:38 | 42.64485 | -8.78381 | 34052 ft | 434 kts | 215° |
| 2026-05-04 14:39 | 42.59311 | -8.82594 | 34070 ft | 433 kts | 215° |
| 2026-05-04 14:39 | 42.54136 | -8.86801 | 34062 ft | 433 kts | 215° |
| 2026-05-04 14:40 | 42.46373 | -8.93094 | 34068 ft | 433 kts | 215° |
| 2026-05-04 14:40 | 42.41201 | -8.97277 | 34063 ft | 433 kts | 215° |
| 2026-05-04 14:41 | 42.36025 | -9.01455 | 34068 ft | 433 kts | 215° |
| 2026-05-04 14:42 | 42.25708 | -9.09759 | 34067 ft | 433 kts | 215° |
| 2026-05-04 14:42 | 42.20502 | -9.13937 | 34064 ft | 433 kts | 216° |
| 2026-05-04 14:43 | 42.15356 | -9.18060 | 34068 ft | 433 kts | 216° |
| 2026-05-04 14:43 | 42.10173 | -9.22205 | 34077 ft | 436 kts | 216° |
| 2026-05-04 14:44 | 42.04915 | -9.26405 | 34087 ft | 443 kts | 216° |
| 2026-05-04 14:44 | 41.99571 | -9.30661 | 34081 ft | 448 kts | 216° |
| 2026-05-04 14:45 | 41.94191 | -9.34935 | 34073 ft | 450 kts | 216° |
| 2026-05-04 14:45 | 41.88919 | -9.39422 | 34078 ft | 448 kts | 219° |
| 2026-05-04 14:46 | 41.83791 | -9.44157 | 34077 ft | 447 kts | 219° |
| 2026-05-04 14:46 | 41.78676 | -9.48896 | 34062 ft | 446 kts | 220° |
| 2026-05-04 14:47 | 41.73560 | -9.53587 | 34074 ft | 445 kts | 220° |
| 2026-05-04 14:47 | 41.68453 | -9.58234 | 34093 ft | 444 kts | 219° |
| 2026-05-04 14:48 | 41.65891 | -9.60557 | 34212 ft | 445 kts | 219° |
| 2026-05-04 14:48 | 41.63361 | -9.62849 | 34405 ft | 444 kts | 219° |
| 2026-05-04 14:48 | 41.60811 | -9.65156 | 34621 ft | 442 kts | 219° |
| 2026-05-04 14:48 | 41.58262 | -9.67460 | 34824 ft | 441 kts | 219° |
| 2026-05-04 14:49 | 41.55726 | -9.69752 | 35029 ft | 439 kts | 219° |
| 2026-05-04 14:49 | 41.53192 | -9.72042 | 35076 ft | 441 kts | 219° |
| 2026-05-04 14:49 | 41.48104 | -9.76635 | 35079 ft | 441 kts | 219° |
| 2026-05-04 14:50 | 41.43034 | -9.81199 | 35083 ft | 439 kts | 219° |
| 2026-05-04 14:50 | 41.37981 | -9.85740 | 35080 ft | 437 kts | 220° |
| 2026-05-04 14:51 | 41.32938 | -9.90265 | 35081 ft | 436 kts | 220° |
| 2026-05-04 14:51 | 41.27915 | -9.94763 | 35087 ft | 435 kts | 220° |
| 2026-05-04 14:52 | 41.22890 | -9.99255 | 35100 ft | 435 kts | 220° |
| 2026-05-04 14:52 | 41.17858 | -10.03744 | 35098 ft | 436 kts | 220° |
| 2026-05-04 14:53 | 41.12817 | -10.08233 | 35100 ft | 437 kts | 220° |
| 2026-05-04 14:53 | 41.07768 | -10.12721 | 35090 ft | 437 kts | 220° |
| 2026-05-04 14:54 | 41.02711 | -10.17206 | 35106 ft | 437 kts | 220° |
| 2026-05-04 14:54 | 40.97650 | -10.21687 | 35093 ft | 438 kts | 220° |
| 2026-05-04 14:55 | 40.92586 | -10.26162 | 35102 ft | 438 kts | 220° |
| 2026-05-04 14:55 | 40.87513 | -10.30637 | 35082 ft | 438 kts | 220° |
| 2026-05-04 14:56 | 40.82472 | -10.35074 | 35097 ft | 438 kts | 220° |
| 2026-05-04 14:56 | 40.77399 | -10.39531 | 35108 ft | 438 kts | 220° |
| 2026-05-04 14:57 | 40.72331 | -10.43977 | 35108 ft | 438 kts | 220° |
| 2026-05-04 14:57 | 40.68082 | -10.47697 | 35112 ft | 437 kts | 220° |
| 2026-05-04 14:58 | 40.63044 | -10.52101 | 35098 ft | 436 kts | 220° |
| 2026-05-04 14:58 | 40.57982 | -10.56517 | 35105 ft | 436 kts | 220° |
| 2026-05-04 14:59 | 40.52931 | -10.60916 | 35109 ft | 436 kts | 220° |
| 2026-05-04 15:00 | 40.45346 | -10.67508 | 35114 ft | 436 kts | 220° |
| 2026-05-04 15:00 | 40.40286 | -10.71894 | 35080 ft | 436 kts | 220° |
| 2026-05-04 15:01 | 40.32703 | -10.78453 | 35117 ft | 435 kts | 220° |
| 2026-05-04 15:01 | 40.27643 | -10.82820 | 35121 ft | 436 kts | 220° |
| 2026-05-04 15:02 | 40.22577 | -10.87184 | 35127 ft | 436 kts | 220° |
| 2026-05-04 15:02 | 40.17502 | -10.91548 | 35126 ft | 436 kts | 220° |
| 2026-05-04 15:03 | 40.12428 | -10.95903 | 35112 ft | 436 kts | 221° |
| 2026-05-04 15:03 | 40.07352 | -11.00251 | 35121 ft | 437 kts | 220° |
| 2026-05-04 15:04 | 40.02269 | -11.04599 | 35126 ft | 437 kts | 220° |
| 2026-05-04 15:04 | 39.97179 | -11.08944 | 35126 ft | 437 kts | 220° |
| 2026-05-04 15:05 | 39.92087 | -11.13282 | 35112 ft | 437 kts | 220° |
| 2026-05-04 15:05 | 39.86995 | -11.17613 | 35122 ft | 437 kts | 220° |
| 2026-05-04 15:06 | 39.81929 | -11.21914 | 35132 ft | 437 kts | 220° |
| 2026-05-04 15:07 | 39.74281 | -11.28394 | 35131 ft | 438 kts | 220° |
| 2026-05-04 15:07 | 39.69176 | -11.32708 | 35080 ft | 438 kts | 220° |
| 2026-05-04 15:08 | 39.64046 | -11.37035 | 35120 ft | 437 kts | 220° |
| 2026-05-04 15:08 | 39.58974 | -11.41307 | 35134 ft | 437 kts | 220° |
| 2026-05-04 15:09 | 39.53874 | -11.45595 | 35134 ft | 437 kts | 220° |
| 2026-05-04 15:09 | 39.48766 | -11.49883 | 35133 ft | 437 kts | 220° |
| 2026-05-04 15:10 | 39.41100 | -11.56301 | 35134 ft | 437 kts | 220° |
| 2026-05-04 15:11 | 39.33435 | -11.62702 | 35138 ft | 437 kts | 220° |
| 2026-05-04 15:11 | 39.28326 | -11.66960 | 35133 ft | 437 kts | 220° |
| 2026-05-04 15:12 | 39.23212 | -11.71214 | 35133 ft | 437 kts | 220° |
| 2026-05-04 15:12 | 39.18105 | -11.75453 | 35135 ft | 436 kts | 220° |
| 2026-05-04 15:13 | 39.13033 | -11.79658 | 35135 ft | 436 kts | 220° |
| 2026-05-04 15:13 | 39.07926 | -11.83884 | 35143 ft | 436 kts | 220° |
| 2026-05-04 15:14 | 39.02816 | -11.88106 | 35139 ft | 436 kts | 220° |
| 2026-05-04 15:14 | 38.97704 | -11.92320 | 35145 ft | 436 kts | 220° |
| 2026-05-04 15:15 | 38.92591 | -11.96529 | 35138 ft | 436 kts | 220° |
| 2026-05-04 15:15 | 38.87482 | -12.00727 | 35142 ft | 436 kts | 220° |
| 2026-05-04 15:16 | 38.79806 | -12.07021 | 35138 ft | 436 kts | 220° |
| 2026-05-04 15:17 | 38.72140 | -12.13291 | 35148 ft | 436 kts | 220° |
| 2026-05-04 15:17 | 38.64496 | -12.19526 | 35145 ft | 436 kts | 220° |
| 2026-05-04 15:18 | 38.59377 | -12.23692 | 35151 ft | 436 kts | 220° |
| 2026-05-04 15:19 | 38.51690 | -12.29936 | 35149 ft | 436 kts | 220° |
| 2026-05-04 15:19 | 38.44001 | -12.36166 | 35147 ft | 435 kts | 219° |
| 2026-05-04 15:20 | 38.38881 | -12.40304 | 35147 ft | 436 kts | 219° |
| 2026-05-04 15:20 | 38.33767 | -12.44432 | 35145 ft | 435 kts | 219° |
| 2026-05-04 15:21 | 38.28640 | -12.48562 | 35156 ft | 435 kts | 219° |
| 2026-05-04 15:22 | 38.20988 | -12.54715 | 35129 ft | 436 kts | 219° |
| 2026-05-04 15:22 | 38.13301 | -12.60879 | 35146 ft | 435 kts | 219° |
| 2026-05-04 15:23 | 38.08180 | -12.64978 | 35162 ft | 435 kts | 219° |
| 2026-05-04 15:23 | 38.03059 | -12.69068 | 35160 ft | 435 kts | 218° |
| 2026-05-04 15:24 | 37.92804 | -12.77241 | 35135 ft | 435 kts | 218° |
| 2026-05-04 15:25 | 37.87715 | -12.81286 | 35154 ft | 434 kts | 218° |
| 2026-05-04 15:26 | 37.80032 | -12.87382 | 35155 ft | 435 kts | 218° |
| 2026-05-04 15:26 | 37.72342 | -12.93467 | 35159 ft | 435 kts | 218° |
| 2026-05-04 15:27 | 37.64647 | -12.99540 | 35158 ft | 435 kts | 218° |
| 2026-05-04 15:28 | 37.56954 | -13.05598 | 35158 ft | 435 kts | 218° |
| 2026-05-04 15:29 | 37.49255 | -13.11646 | 35158 ft | 435 kts | 218° |
| 2026-05-04 15:30 | 37.31280 | -13.25707 | 35162 ft | 435 kts | 217° |
| 2026-05-04 15:31 | 37.23566 | -13.31716 | 35160 ft | 435 kts | 217° |
| 2026-05-04 15:32 | 37.10706 | -13.41703 | 35159 ft | 435 kts | 217° |
| 2026-05-04 15:34 | 36.97864 | -13.51635 | 35157 ft | 435 kts | 217° |
| 2026-05-04 15:34 | 36.90146 | -13.57583 | 35158 ft | 434 kts | 217° |
| 2026-05-04 15:35 | 36.82441 | -13.63509 | 35163 ft | 433 kts | 217° |
| 2026-05-04 15:36 | 36.74743 | -13.69415 | 35166 ft | 433 kts | 217° |
| 2026-05-04 15:36 | 36.69615 | -13.73342 | 35163 ft | 433 kts | 217° |
| 2026-05-04 15:37 | 36.64485 | -13.77263 | 35159 ft | 432 kts | 218° |
| 2026-05-04 15:37 | 36.59370 | -13.81167 | 35167 ft | 431 kts | 218° |
| 2026-05-04 15:38 | 36.54259 | -13.85062 | 35172 ft | 430 kts | 218° |
| 2026-05-04 15:38 | 36.49149 | -13.88951 | 35162 ft | 430 kts | 218° |
| 2026-05-04 15:39 | 36.44048 | -13.92826 | 35170 ft | 430 kts | 218° |
| 2026-05-04 15:40 | 36.36427 | -13.98604 | 35161 ft | 429 kts | 217° |
| 2026-05-04 15:40 | 36.31330 | -14.02462 | 35179 ft | 429 kts | 217° |
| 2026-05-04 15:41 | 36.26236 | -14.06311 | 35163 ft | 429 kts | 217° |
| 2026-05-04 15:41 | 36.21137 | -14.10157 | 35163 ft | 429 kts | 217° |
| 2026-05-04 15:42 | 36.16038 | -14.13999 | 35168 ft | 429 kts | 217° |
| 2026-05-04 15:42 | 36.11795 | -14.17190 | 35156 ft | 429 kts | 217° |
| 2026-05-04 15:43 | 36.06691 | -14.21024 | 35170 ft | 429 kts | 217° |
| 2026-05-04 15:43 | 36.01589 | -14.24850 | 35161 ft | 429 kts | 217° |
| 2026-05-04 15:44 | 35.96487 | -14.28671 | 35170 ft | 429 kts | 217° |
| 2026-05-04 15:44 | 35.91373 | -14.32495 | 35166 ft | 430 kts | 217° |
| 2026-05-04 15:45 | 35.86254 | -14.36316 | 35151 ft | 430 kts | 217° |
| 2026-05-04 15:45 | 35.81135 | -14.40132 | 35165 ft | 430 kts | 217° |
| 2026-05-04 15:46 | 35.76013 | -14.43944 | 35162 ft | 430 kts | 217° |
| 2026-05-04 15:46 | 35.70885 | -14.47754 | 35163 ft | 430 kts | 217° |
| 2026-05-04 15:47 | 35.65752 | -14.51563 | 35168 ft | 431 kts | 217° |
| 2026-05-04 15:47 | 35.60620 | -14.55366 | 35146 ft | 431 kts | 216° |
| 2026-05-04 15:48 | 35.55524 | -14.59134 | 35157 ft | 429 kts | 216° |
| 2026-05-04 15:48 | 35.47858 | -14.64794 | 35161 ft | 428 kts | 216° |
| 2026-05-04 15:49 | 35.42762 | -14.68550 | 35158 ft | 427 kts | 216° |
| 2026-05-04 15:49 | 35.37665 | -14.72301 | 35163 ft | 427 kts | 216° |
| 2026-05-04 15:50 | 35.32574 | -14.76042 | 35139 ft | 426 kts | 216° |
| 2026-05-04 15:50 | 35.27494 | -14.79769 | 35151 ft | 424 kts | 216° |
| 2026-05-04 15:51 | 35.22467 | -14.83452 | 35162 ft | 423 kts | 216° |
| 2026-05-04 15:51 | 35.17419 | -14.87145 | 35163 ft | 423 kts | 216° |
| 2026-05-04 15:52 | 35.12371 | -14.90832 | 35161 ft | 422 kts | 216° |
| 2026-05-04 15:52 | 35.07320 | -14.94517 | 35161 ft | 422 kts | 216° |
| 2026-05-04 15:53 | 35.02271 | -14.98195 | 35163 ft | 423 kts | 215° |
| 2026-05-04 15:53 | 34.97215 | -15.01872 | 35160 ft | 423 kts | 215° |
| 2026-05-04 15:54 | 34.92155 | -15.05547 | 35158 ft | 423 kts | 215° |
| 2026-05-04 15:54 | 34.87096 | -15.09216 | 35159 ft | 424 kts | 215° |
| 2026-05-04 15:55 | 34.82028 | -15.12894 | 35156 ft | 423 kts | 216° |
| 2026-05-04 15:55 | 34.77031 | -15.16684 | 35147 ft | 423 kts | 216° |
| 2026-05-04 15:56 | 34.72063 | -15.20507 | 35153 ft | 423 kts | 216° |
| 2026-05-04 15:56 | 34.67083 | -15.24320 | 35153 ft | 423 kts | 216° |
| 2026-05-04 15:57 | 34.62094 | -15.28121 | 35153 ft | 423 kts | 216° |
| 2026-05-04 15:57 | 34.57101 | -15.31914 | 35149 ft | 424 kts | 216° |
| 2026-05-04 15:58 | 34.52134 | -15.35681 | 35134 ft | 424 kts | 216° |
| 2026-05-04 15:58 | 34.47140 | -15.39462 | 35147 ft | 423 kts | 216° |
| 2026-05-04 15:59 | 34.42137 | -15.43245 | 35143 ft | 424 kts | 216° |
| 2026-05-04 15:59 | 34.37134 | -15.47023 | 35146 ft | 424 kts | 216° |
| 2026-05-04 16:00 | 34.32130 | -15.50796 | 35147 ft | 424 kts | 216° |
| 2026-05-04 16:00 | 34.27116 | -15.54572 | 34912 ft | 428 kts | 216° |
| 2026-05-04 16:01 | 34.24576 | -15.56484 | 34367 ft | 428 kts | 216° |
| 2026-05-04 16:01 | 34.22043 | -15.58388 | 33537 ft | 429 kts | 216° |
| 2026-05-04 16:01 | 34.19508 | -15.60292 | 32840 ft | 429 kts | 216° |
| 2026-05-04 16:01 | 34.17004 | -15.62171 | 32118 ft | 430 kts | 216° |
| 2026-05-04 16:02 | 34.14426 | -15.64105 | 31393 ft | 431 kts | 215° |
| 2026-05-04 16:02 | 34.11912 | -15.65989 | 30663 ft | 433 kts | 215° |
| 2026-05-04 16:02 | 34.06769 | -15.69840 | 28940 ft | 437 kts | 215° |
| 2026-05-04 16:03 | 34.04184 | -15.71774 | 28080 ft | 438 kts | 215° |
| 2026-05-04 16:03 | 34.01594 | -15.73709 | 27193 ft | 439 kts | 215° |
| 2026-05-04 16:03 | 33.98989 | -15.75654 | 26294 ft | 441 kts | 214° |
| 2026-05-04 16:03 | 33.96371 | -15.77608 | 25561 ft | 440 kts | 214° |
| 2026-05-04 16:04 | 33.93780 | -15.79539 | 24924 ft | 436 kts | 214° |
| 2026-05-04 16:04 | 33.88637 | -15.83367 | 23594 ft | 432 kts | 214° |
| 2026-05-04 16:04 | 33.86088 | -15.85263 | 22863 ft | 429 kts | 214° |
| 2026-05-04 16:05 | 33.83561 | -15.87142 | 22195 ft | 425 kts | 214° |
| 2026-05-04 16:05 | 33.81054 | -15.89004 | 21542 ft | 421 kts | 214° |
| 2026-05-04 16:05 | 33.76109 | -15.92675 | 20288 ft | 414 kts | 214° |
| 2026-05-04 16:06 | 33.73659 | -15.94491 | 19680 ft | 411 kts | 214° |
| 2026-05-04 16:06 | 33.67228 | -15.99254 | 17948 ft | 405 kts | 214° |
| 2026-05-04 16:07 | 33.64029 | -16.01621 | 17108 ft | 402 kts | 214° |
| 2026-05-04 16:07 | 33.56998 | -16.06814 | 15290 ft | 393 kts | 213° |
| 2026-05-04 16:08 | 33.54679 | -16.08525 | 14696 ft | 390 kts | 213° |
| 2026-05-04 16:08 | 33.47784 | -16.13605 | 12839 ft | 384 kts | 213° |
| 2026-05-04 16:09 | 33.43279 | -16.16948 | 11653 ft | 377 kts | 216° |
| 2026-05-04 16:09 | 33.39441 | -16.20939 | 11163 ft | 354 kts | 225° |
| 2026-05-04 16:10 | 33.36097 | -16.24983 | 10872 ft | 329 kts | 225° |
| 2026-05-04 16:11 | 33.30613 | -16.29220 | 10495 ft | 299 kts | 210° |
| 2026-05-04 16:11 | 33.28813 | -16.30393 | 10373 ft | 290 kts | 210° |
| 2026-05-04 16:12 | 33.23707 | -16.33744 | 10026 ft | 269 kts | 210° |
| 2026-05-04 16:12 | 33.18805 | -16.36993 | 9168 ft | 267 kts | 210° |
| 2026-05-04 16:13 | 33.15571 | -16.39142 | 8637 ft | 268 kts | 210° |
| 2026-05-04 16:13 | 33.12234 | -16.41360 | 8087 ft | 281 kts | 210° |
| 2026-05-04 16:14 | 33.08801 | -16.43640 | 7488 ft | 281 kts | 210° |
| 2026-05-04 16:14 | 33.05425 | -16.45881 | 6920 ft | 277 kts | 210° |
| 2026-05-04 16:15 | 33.00421 | -16.49199 | 6034 ft | 272 kts | 209° |
| 2026-05-04 16:16 | 32.97140 | -16.51373 | 5472 ft | 267 kts | 209° |
| 2026-05-04 16:16 | 32.92364 | -16.54534 | 4631 ft | 252 kts | 209° |
| 2026-05-04 16:17 | 32.89387 | -16.56502 | 4208 ft | 239 kts | 209° |
| 2026-05-04 16:18 | 32.85059 | -16.59393 | 3832 ft | 240 kts | 216° |
| 2026-05-04 16:18 | 32.84009 | -16.60926 | 3579 ft | 243 kts | 248° |
| 2026-05-04 16:19 | 32.85676 | -16.66031 | 3087 ft | 241 kts | 337° |
| 2026-05-04 16:19 | 32.88905 | -16.65770 | 3009 ft | 244 kts | 34° |
| 2026-05-04 16:20 | 32.92753 | -16.61683 | 2997 ft | 247 kts | 44° |
| 2026-05-04 16:20 | 32.95207 | -16.58852 | 2994 ft | 245 kts | 57° |
| 2026-05-04 16:21 | 32.94343 | -16.53609 | 3008 ft | 233 kts | 147° |
| 2026-05-04 16:22 | 32.91262 | -16.53159 | 3015 ft | 233 kts | 201° |
| 2026-05-04 16:22 | 32.87468 | -16.56856 | 3003 ft | 240 kts | 222° |
| 2026-05-04 16:23 | 32.84391 | -16.61383 | 3008 ft | 242 kts | 263° |
| 2026-05-04 16:24 | 32.88877 | -16.65432 | 3015 ft | 244 kts | 25° |
| 2026-05-04 16:25 | 32.91532 | -16.62914 | 3004 ft | 247 kts | 44° |
| 2026-05-04 16:26 | 32.95642 | -16.56718 | 3018 ft | 241 kts | 94° |
| 2026-05-04 16:26 | 32.93068 | -16.53006 | 3014 ft | 232 kts | 171° |
| 2026-05-04 16:27 | 32.90061 | -16.54018 | 3014 ft | 235 kts | 220° |
| 2026-05-04 16:28 | 32.86410 | -16.58020 | 2999 ft | 240 kts | 222° |
| 2026-05-04 16:28 | 32.84535 | -16.63101 | 2997 ft | 245 kts | 288° |
| 2026-05-04 16:29 | 32.90059 | -16.64535 | 3014 ft | 249 kts | 40° |
| 2026-05-04 16:30 | 32.93859 | -16.60340 | 3000 ft | 246 kts | 44° |
| 2026-05-04 16:31 | 32.95623 | -16.57065 | 3017 ft | 237 kts | 89° |
| 2026-05-04 16:31 | 32.92758 | -16.52930 | 3012 ft | 235 kts | 175° |
| 2026-05-04 16:32 | 32.88560 | -16.55604 | 3011 ft | 239 kts | 222° |
| 2026-05-04 16:33 | 32.86145 | -16.58291 | 3007 ft | 239 kts | 222° |
| 2026-05-04 16:33 | 32.84377 | -16.61553 | 3012 ft | 244 kts | 265° |
| 2026-05-04 16:34 | 32.85767 | -16.65099 | 2989 ft | 249 kts | 325° |
| 2026-05-04 16:34 | 32.87350 | -16.65781 | 2998 ft | 247 kts | 356° |
| 2026-05-04 16:35 | 32.91630 | -16.62838 | 3013 ft | 245 kts | 44° |
| 2026-05-04 16:35 | 32.95256 | -16.58583 | 2996 ft | 247 kts | 62° |
| 2026-05-04 16:36 | 32.95655 | -16.56651 | 3017 ft | 242 kts | 95° |
| 2026-05-04 16:36 | 32.93997 | -16.53407 | 3010 ft | 236 kts | 153° |
| 2026-05-04 16:37 | 32.90855 | -16.53506 | 2683 ft | 239 kts | 212° |
| 2026-05-04 16:37 | 32.89572 | -16.54726 | 2430 ft | 233 kts | 221° |
| 2026-05-04 16:37 | 32.87316 | -16.57288 | 2084 ft | 215 kts | 223° |
| 2026-05-04 16:38 | 32.85132 | -16.59749 | 2014 ft | 216 kts | 222° |
| 2026-05-04 16:39 | 32.81971 | -16.63254 | 1998 ft | 193 kts | 223° |
| 2026-05-04 16:39 | 32.80034 | -16.65432 | 1994 ft | 189 kts | 224° |
| 2026-05-04 16:40 | 32.78261 | -16.67518 | 1996 ft | 175 kts | 224° |
| 2026-05-04 16:40 | 32.76493 | -16.69594 | 1806 ft | 182 kts | 223° |
| 2026-05-04 16:41 | 32.74812 | -16.71566 | 1369 ft | 154 kts | 224° |
| 2026-05-04 16:41 | 32.72649 | -16.74116 | 790 ft | 143 kts | 223° |
| 2026-05-04 16:42 | 32.70476 | -16.76636 | 213 ft | 142 kts | 223° |
| 2026-05-04 16:43 | 32.69559 | -16.77710 | 175 ft | 27 kts | 224° |
| 2026-05-04 16:43 | 32.69350 | -16.77953 | 175 ft | 6 kts | 213° |
| 2026-05-04 16:43 | 32.69310 | -16.77960 | 175 ft | 6 kts | 159° |
| 2026-05-04 16:44 | 32.69296 | -16.77944 | 175 ft | 0 kts | 121° |